Time;durP1;ratioP1;P1;durP2;ratioP2;P2;SDS_P1;SDS_P2;PMS_P1;PMS_P2;Temp;Humidity;BMP_temperature;BMP_pressure;BME280_temperature;BME280_humidity;BME280_pressure;Samples;Min_cycle;Max_cycle;Signal;HPM_P1;HPM_P2
2021/01/04 00:03:34;;;;;;;254.53;126.65;;;;;;;0.65;93.32;98790.82;4351907;80;21182;-90
2021/01/04 00:10:00;;;;;;;247.25;118.80;;;;;;;0.65;93.14;98786.78;4350834;80;21637;-89
2021/01/04 00:16:14;;;;;;;235.15;117.37;;;;;;;0.58;92.95;98768.96;4353007;80;21315;-91
2021/01/04 00:22:56;;;;;;;247.30;121.07;;;;;;;0.46;93.17;98766.87;4350427;80;21619;-89
2021/01/04 00:28:57;;;;;;;231.32;118.53;;;;;;;0.46;92.89;98764.18;4352724;80;21149;-89
2021/01/04 00:35:03;;;;;;;211.45;102.80;;;;;;;0.27;93.09;98760.20;4346772;80;21385;-90
2021/01/04 00:41:40;;;;;;;213.77;102.70;;;;;;;0.20;92.88;98768.72;4347566;79;21158;-90
2021/01/04 00:48:06;;;;;;;221.13;106.05;;;;;;;0.09;92.58;98772.00;4344423;80;21177;-89
2021/01/04 00:54:31;;;;;;;226.58;112.92;;;;;;;0.02;92.97;98779.17;4343511;80;21196;-89
2021/01/04 01:00:38;;;;;;;237.30;114.23;;;;;;;0.06;93.11;98772.63;4317790;80;21170;-89
2021/01/04 01:07:02;;;;;;;;;;;;;;;-0.16;92.89;98764.86;4355661;80;21184;-89
2021/01/04 01:13:24;;;;;;;230.13;112.07;;;;;;;-0.22;92.70;98774.74;4355040;80;20224;-89
2021/01/04 01:19:34;;;;;;;213.35;103.30;;;;;;;-0.50;92.94;98782.17;4347998;80;21196;-89
2021/01/04 01:26:21;;;;;;;231.60;115.07;;;;;;;-0.48;92.84;98776.48;4326272;80;21711;-91
2021/01/04 01:32:39;;;;;;;229.93;114.32;;;;;;;-0.62;93.10;98779.80;4350804;80;21167;-89
2021/01/04 01:38:59;;;;;;;230.00;111.93;;;;;;;-0.67;93.04;98786.11;4352337;80;21155;-90
2021/01/04 01:45:18;;;;;;;216.30;107.10;;;;;;;-0.73;93.04;98792.71;4347459;81;21456;-88
2021/01/04 01:51:57;;;;;;;222.40;106.10;;;;;;;-0.74;93.28;98795.70;4351002;80;21130;-88
2021/01/04 01:58:16;;;;;;;205.47;99.70;;;;;;;-0.77;92.99;98787.72;4349092;80;21637;-89
2021/01/04 02:04:43;;;;;;;218.53;101.97;;;;;;;-0.81;93.13;98788.61;4337745;80;21145;-88
2021/01/04 02:10:49;;;;;;;221.13;101.65;;;;;;;-0.80;93.05;98773.52;4354587;80;21158;-89
2021/01/04 02:17:23;;;;;;;211.07;97.23;;;;;;;-0.86;92.84;98773.41;4346742;80;21209;-89
2021/01/04 02:23:45;;;;;;;199.70;99.53;;;;;;;-0.94;92.96;98772.78;4365046;80;21169;-89
2021/01/04 02:29:46;;;;;;;200.67;102.40;;;;;;;-0.99;92.86;98772.94;4326836;80;21174;-88
2021/01/04 02:35:55;;;;;;;216.37;106.20;;;;;;;-1.03;93.05;98775.16;4384008;80;21162;-89
2021/01/04 02:42:14;;;;;;;208.73;98.43;;;;;;;-1.10;93.24;98781.52;4382280;80;21217;-89
2021/01/04 02:48:33;;;;;;;210.93;100.63;;;;;;;-1.06;93.43;98790.01;4390111;79;21638;-88
2021/01/04 02:54:38;;;;;;;200.10;97.20;;;;;;;-1.04;93.40;98797.22;4392103;79;21120;-88
2021/01/04 03:00:44;;;;;;;182.93;88.13;;;;;;;-1.07;92.88;98788.97;4391476;79;21176;-89
2021/01/04 03:07:11;;;;;;;193.78;93.47;;;;;;;-1.17;93.00;98785.16;4389521;79;21176;-89
2021/01/04 03:13:53;;;;;;;185.23;88.43;;;;;;;-1.26;93.28;98785.64;4379945;80;21190;-89
2021/01/04 03:19:59;;;;;;;180.10;86.17;;;;;;;-1.33;92.55;98787.39;4310775;81;21335;-89
2021/01/04 03:26:13;;;;;;;;;;;;;;;-1.39;92.99;98787.84;4385085;80;21173;-89
2021/01/04 03:32:15;;;;;;;198.97;93.43;;;;;;;-1.41;93.27;98792.70;4385466;80;20492;-89
2021/01/04 03:38:18;;;;;;;185.97;93.57;;;;;;;-1.32;93.64;98797.06;4387628;80;21182;-87
2021/01/04 03:44:19;;;;;;;192.57;90.53;;;;;;;-1.32;93.23;98799.75;4386914;80;21158;-89
2021/01/04 03:50:21;;;;;;;187.53;93.07;;;;;;;-1.31;93.48;98799.98;4384941;80;21699;-88
2021/01/04 03:56:23;;;;;;;167.87;80.93;;;;;;;-1.19;93.71;98806.95;4388419;79;21234;-88
2021/01/04 04:02:24;;;;;;;192.60;89.90;;;;;;;-1.24;93.21;98812.47;4384730;80;22390;-88
2021/01/04 04:08:26;;;;;;;183.73;90.50;;;;;;;-1.15;93.47;98809.30;4382951;80;21170;-88
2021/01/04 04:14:35;;;;;;;158.67;79.70;;;;;;;-1.09;93.42;98808.62;4389264;80;21173;-87
2021/01/04 04:20:36;;;;;;;170.57;83.60;;;;;;;-1.07;93.17;98809.92;4380093;80;21661;-88
2021/01/04 04:26:39;;;;;;;165.80;80.23;;;;;;;-1.11;93.50;98815.64;4377545;80;21308;-88
2021/01/04 04:32:40;;;;;;;175.33;86.87;;;;;;;-1.11;93.72;98829.07;4385368;80;21304;-89
2021/01/04 04:38:42;;;;;;;177.13;82.37;;;;;;;-0.99;94.05;98827.20;4388708;80;21166;-89
2021/01/04 04:44:58;;;;;;;177.90;85.17;;;;;;;-0.87;93.81;98822.89;4391870;80;21220;-88
2021/01/04 04:51:20;;;;;;;173.28;84.10;;;;;;;-0.86;93.66;98822.34;4394097;79;21185;-87
2021/01/04 04:57:41;;;;;;;183.57;88.83;;;;;;;-0.92;93.30;98801.50;4382442;80;21189;-88
2021/01/04 05:04:08;;;;;;;198.97;95.50;;;;;;;-0.99;93.62;98805.71;4383992;80;21638;-89
2021/01/04 05:10:32;;;;;;;171.95;83.97;;;;;;;-1.05;93.97;98815.77;4379529;80;21205;-88
2021/01/04 05:16:48;;;;;;;160.27;78.37;;;;;;;-1.03;93.72;98805.52;4387074;80;21190;-88
2021/01/04 05:23:07;;;;;;;145.05;71.67;;;;;;;-1.15;93.18;98798.55;4384617;80;21173;-89
2021/01/04 05:29:47;;;;;;;174.73;83.70;;;;;;;-1.21;93.52;98801.11;4587304;76;23466;-89
2021/01/04 05:35:56;;;;;;;146.10;72.60;;;;;;;-1.26;94.05;98811.16;4493763;78;21565;-88
2021/01/04 05:42:03;;;;;;;142.23;69.40;;;;;;;-1.23;93.33;98803.30;4491971;78;21321;-88
2021/01/04 05:48:56;;;;;;;150.10;70.73;;;;;;;-1.43;93.01;98784.15;4488490;78;21613;-88
2021/01/04 05:54:58;;;;;;;158.27;77.70;;;;;;;-1.47;93.65;98786.63;4489163;78;21147;-88
2021/01/04 06:01:17;;;;;;;148.07;71.40;;;;;;;-1.47;93.90;98789.31;4492662;78;21573;-88
2021/01/04 06:07:19;;;;;;;152.60;70.03;;;;;;;-1.51;93.31;98790.23;4493005;78;21136;-88
2021/01/04 06:13:22;;;;;;;157.93;77.87;;;;;;;-1.87;92.46;98784.27;4491388;78;21658;-87
2021/01/04 06:19:25;;;;;;;156.30;74.67;;;;;;;-1.92;93.29;98791.07;4489003;78;21713;-87
2021/01/04 06:25:32;;;;;;;207.77;96.07;;;;;;;-1.99;92.96;98779.93;4493208;78;21227;-87
2021/01/04 06:31:44;;;;;;;185.47;86.13;;;;;;;-2.10;93.20;98783.13;4494238;78;21664;-87
2021/01/04 06:37:46;;;;;;;154.10;74.03;;;;;;;-2.00;93.57;98799.00;4498517;78;21315;-88
2021/01/04 06:43:47;;;;;;;190.50;82.23;;;;;;;-1.98;93.50;98800.85;4496347;78;21575;-87
2021/01/04 06:50:06;;;;;;;153.97;74.03;;;;;;;-1.89;93.65;98814.62;4492443;78;21176;-89
2021/01/04 06:56:23;;;;;;;190.93;81.87;;;;;;;-1.71;93.79;98827.13;4502824;78;21141;-88
2021/01/04 07:02:51;;;;;;;183.65;79.25;;;;;;;-1.81;93.26;98833.25;4488869;78;21124;-88
2021/01/04 07:09:34;;;;;;;164.07;75.50;;;;;;;-1.80;93.47;98846.90;4489698;78;21157;-88
2021/01/04 07:15:47;;;;;;;203.23;89.63;;;;;;;-1.78;93.37;98858.14;4495425;78;21423;-87
2021/01/04 07:21:58;;;;;;;180.33;84.30;;;;;;;-1.67;94.00;98864.91;4490824;78;21614;-88
2021/01/04 07:28:05;;;;;;;189.43;96.73;;;;;;;-1.46;94.35;98866.10;4492228;78;21193;-89
2021/01/04 07:34:36;;;;;;;195.03;91.40;;;;;;;-1.18;94.34;98864.16;4492117;78;21157;-88
2021/01/04 07:41:08;;;;;;;202.07;99.60;;;;;;;-1.04;94.60;98871.64;4489493;78;21114;-88
2021/01/04 07:47:41;;;;;;;175.07;86.87;;;;;;;-0.95;94.40;98867.94;4486363;78;21177;-89
2021/01/04 07:54:00;;;;;;;165.10;82.53;;;;;;;-0.66;95.03;98864.87;4493915;78;21589;-88
2021/01/04 08:00:42;;;;;;;140.77;69.73;;;;;;;-0.45;94.79;98865.41;4476448;78;21147;-87
2021/01/04 08:07:04;;;;;;;164.37;77.30;;;;;;;-0.36;94.50;98867.61;4489810;78;21183;-88
2021/01/04 08:13:59;;;;;;;137.50;63.00;;;;;;;-0.28;94.86;98880.32;4491340;78;21696;-89
2021/01/04 08:20:04;;;;;;;127.63;63.03;;;;;;;-0.12;94.97;98883.42;4213009;83;21176;-89
2021/01/04 08:26:42;;;;;;;133.50;64.25;;;;;;;0.15;95.19;98872.49;4436459;78;21643;-88
2021/01/04 08:32:52;;;;;;;131.80;64.32;;;;;;;0.33;95.10;98865.30;4489848;78;21137;-88
2021/01/04 08:39:24;;;;;;;115.90;58.92;;;;;;;0.58;95.13;98869.40;4489446;78;21153;-88
2021/01/04 08:45:33;;;;;;;115.52;61.53;;;;;;;1.63;95.74;98860.55;4493040;78;21132;-90
2021/01/04 08:51:39;;;;;;;97.20;49.77;;;;;;;1.63;95.74;98860.55;4483290;78;21216;-90
2021/01/04 08:57:44;;;;;;;99.57;50.30;;;;;;;2.21;95.86;98872.31;4485522;78;21141;-90
2021/01/04 09:03:46;;;;;;;91.35;48.58;;;;;;;2.71;95.56;98865.67;4479870;78;21658;-90
2021/01/04 09:10:23;;;;;;;83.85;46.80;;;;;;;3.12;95.36;98871.92;4488543;78;21163;-90
2021/01/04 09:16:32;;;;;;;85.00;47.83;;;;;;;3.53;95.14;98872.48;4488226;78;21731;-91
2021/01/04 09:22:34;;;;;;;89.22;47.40;;;;;;;3.95;94.69;98863.16;4483986;78;21179;-90
2021/01/04 09:28:50;;;;;;;87.65;47.65;;;;;;;4.31;94.16;98867.86;4481597;78;21157;-90
2021/01/04 09:34:52;;;;;;;84.53;46.23;;;;;;;4.59;93.97;98863.36;4481535;78;21145;-91
2021/01/04 09:40:58;;;;;;;89.40;51.53;;;;;;;5.02;93.63;98862.23;4492093;78;21144;-90
2021/01/04 09:47:04;;;;;;;94.93;51.37;;;;;;;4.95;92.96;98857.92;4486766;77;21598;-91
2021/01/04 09:53:20;;;;;;;87.08;45.05;;;;;;;5.24;93.29;98856.31;4486154;78;21160;-89
2021/01/04 09:59:24;;;;;;;79.80;44.85;;;;;;;5.40;92.55;98850.39;4497842;78;21180;-91
2021/01/04 10:05:40;;;;;;;84.42;45.20;;;;;;;4.88;91.51;98843.36;4485596;78;21157;-91
2021/01/04 10:11:45;;;;;;;86.32;45.12;;;;;;;4.59;91.81;98839.77;4483190;78;21670;-91
2021/01/04 10:18:02;;;;;;;86.13;44.77;;;;;;;4.27;91.88;98843.93;4487903;78;21616;-90
2021/01/04 10:24:08;;;;;;;83.87;43.03;;;;;;;4.08;91.75;98835.54;4492035;77;21220;-90
2021/01/04 10:30:13;;;;;;;94.65;49.18;;;;;;;3.88;91.81;98841.27;4332627;81;21617;-87
2021/01/04 10:36:20;;;;;;;106.75;50.98;;;;;;;3.52;91.96;98842.49;4396565;80;21192;-90
2021/01/04 10:42:23;;;;;;;104.55;51.23;;;;;;;3.48;92.29;98830.73;4392308;80;21183;-91
2021/01/04 10:48:30;;;;;;;103.42;49.85;;;;;;;3.76;92.66;98829.61;4389227;80;21402;-90
2021/01/04 10:54:44;;;;;;;86.82;44.45;;;;;;;3.98;92.27;98833.25;4385176;80;21130;-89
2021/01/04 11:00:50;;;;;;;88.40;44.60;;;;;;;4.29;92.30;98828.91;4387022;80;21193;-89
2021/01/04 11:07:16;;;;;;;79.62;42.27;;;;;;;4.75;92.29;98833.89;4383885;80;21196;-89
2021/01/04 11:13:30;;;;;;;84.50;41.15;;;;;;;4.99;91.68;98814.64;4377287;80;21220;-89
2021/01/04 11:19:35;;;;;;;83.67;44.27;;;;;;;4.85;91.53;98800.86;4396297;80;21192;-90
2021/01/04 11:25:40;;;;;;;79.50;41.55;;;;;;;4.81;91.41;98783.71;4395370;79;21192;-89
2021/01/04 11:31:42;;;;;;;75.20;38.75;;;;;;;4.87;91.18;98782.89;4330924;80;21190;-90
2021/01/04 11:37:43;;;;;;;82.35;43.50;;;;;;;5.02;91.44;98792.25;4327029;80;21572;-89
2021/01/04 11:43:47;;;;;;;84.50;46.10;;;;;;;5.10;90.75;98788.61;4379173;80;21112;-90
2021/01/04 11:49:48;;;;;;;82.12;44.50;;;;;;;4.99;90.56;98793.73;4382914;80;21132;-90
2021/01/04 11:55:50;;;;;;;78.17;40.73;;;;;;;4.95;90.39;98786.63;4384132;80;21188;-90
2021/01/04 12:01:53;;;;;;;85.42;44.88;;;;;;;4.84;90.59;98774.09;4330742;80;21146;-90
2021/01/04 12:07:54;;;;;;;85.20;44.93;;;;;;;4.53;89.95;98784.20;4329880;80;21175;-90
2021/01/04 12:13:56;;;;;;;84.70;41.68;;;;;;;4.25;89.88;98789.27;4333392;80;21206;-90
2021/01/04 12:19:57;;;;;;;81.02;41.18;;;;;;;4.17;90.29;98784.75;4337088;80;21169;-88
2021/01/04 12:25:59;;;;;;;79.27;41.50;;;;;;;4.15;90.36;98787.03;4327021;80;21654;-90
2021/01/04 12:32:02;;;;;;;85.42;41.33;;;;;;;4.00;90.24;98772.77;4335730;80;21639;-90
2021/01/04 12:38:05;;;;;;;65.83;34.48;;;;;;;3.94;90.47;98775.48;4329255;80;21122;-89
2021/01/04 12:44:09;;;;;;;62.70;33.55;;;;;;;4.01;90.66;98776.50;4328775;81;22059;-91
2021/01/04 12:50:11;;;;;;;67.50;34.78;;;;;;;4.09;90.46;98786.45;4382326;80;21157;-90
2021/01/04 12:56:16;;;;;;;85.03;44.67;;;;;;;4.04;90.26;98783.95;4341502;80;21166;-91
2021/01/04 13:02:18;;;;;;;87.08;44.77;;;;;;;4.02;90.08;98780.81;4334389;80;21558;-89
2021/01/04 13:08:20;;;;;;;83.27;43.85;;;;;;;3.93;90.27;98773.33;4383135;80;21125;-90
2021/01/04 13:14:23;;;;;;;83.00;44.25;;;;;;;3.89;90.14;98765.66;4332677;80;21470;-90
2021/01/04 13:20:24;;;;;;;80.85;42.88;;;;;;;3.84;90.23;98753.69;4334901;80;21179;-90
2021/01/04 13:26:26;;;;;;;94.90;47.70;;;;;;;3.83;90.23;98740.48;4382813;80;21629;-89
2021/01/04 13:32:27;;;;;;;101.07;48.58;;;;;;;3.82;90.24;98738.91;4350752;80;21210;-91
2021/01/04 13:38:30;;;;;;;98.00;48.63;;;;;;;3.78;90.37;98740.14;4344499;80;21208;-89
2021/01/04 13:44:32;;;;;;;107.95;50.20;;;;;;;3.78;90.30;98740.70;4340799;80;21205;-90
2021/01/04 13:50:34;;;;;;;103.42;51.75;;;;;;;3.74;90.26;98743.86;4344840;80;21190;-92
2021/01/04 13:56:35;;;;;;;104.12;49.73;;;;;;;3.74;90.31;98763.61;4351680;80;21161;-90
2021/01/04 14:02:37;;;;;;;105.75;49.53;;;;;;;3.68;90.16;98751.98;4351116;80;21234;-91
2021/01/04 14:08:40;;;;;;;113.17;52.55;;;;;;;3.57;90.06;98740.77;4359125;80;21595;-90
2021/01/04 14:14:42;;;;;;;120.30;52.00;;;;;;;3.48;90.02;98747.42;4357908;80;21184;-89
2021/01/04 14:20:44;;;;;;;111.22;51.48;;;;;;;3.35;89.99;98741.73;4352591;80;21647;-89
2021/01/04 14:26:45;;;;;;;104.45;50.65;;;;;;;3.11;89.59;98741.08;4351999;80;21225;-90
2021/01/04 14:32:47;;;;;;;113.97;50.78;;;;;;;2.81;89.62;98751.74;4347066;80;21638;-90
2021/01/04 14:38:48;;;;;;;125.90;53.23;;;;;;;2.42;89.69;98763.78;4347639;80;21178;-88
2021/01/04 14:44:50;;;;;;;102.00;47.03;;;;;;;2.20;89.92;98757.30;4342768;80;21197;-87
2021/01/04 14:50:52;;;;;;;100.50;49.48;;;;;;;1.98;90.21;98754.06;4341718;80;22309;-88
2021/01/04 14:56:55;;;;;;;96.63;44.98;;;;;;;1.87;90.64;98764.98;4342349;80;21131;-88
2021/01/04 15:02:57;;;;;;;91.02;44.58;;;;;;;1.79;90.50;98757.16;4342719;80;21176;-91
2021/01/04 15:08:58;;;;;;;89.07;43.25;;;;;;;1.71;90.85;98763.95;4346160;80;21206;-89
2021/01/04 15:15:02;;;;;;;91.53;44.93;;;;;;;1.65;90.98;98764.66;4351617;80;21219;-88
2021/01/04 15:21:04;;;;;;;101.47;44.70;;;;;;;1.67;91.12;98753.55;4340320;80;21171;-88
2021/01/04 15:27:06;;;;;;;111.00;54.48;;;;;;;1.64;91.31;98755.77;4346203;80;21216;-89
2021/01/04 15:33:08;;;;;;;83.75;42.60;;;;;;;1.63;91.41;98748.58;4342753;80;21162;-88
2021/01/04 15:39:10;;;;;;;98.17;43.38;;;;;;;1.59;91.17;98741.13;4344780;80;21206;-89
2021/01/04 15:45:13;;;;;;;85.55;39.42;;;;;;;1.55;91.48;98732.66;4356126;80;21632;-89
2021/01/04 15:51:20;;;;;;;79.70;37.98;;;;;;;1.57;91.74;98743.34;4343319;80;21209;-90
2021/01/04 15:57:22;;;;;;;79.95;38.17;;;;;;;1.58;91.99;98741.45;4342807;81;21145;-91
2021/01/04 16:03:24;;;;;;;65.32;33.30;;;;;;;1.61;91.89;98739.45;4343020;80;21193;-89
2021/01/04 16:09:28;;;;;;;58.58;29.23;;;;;;;1.59;91.74;98730.88;4342867;80;21175;-90
2021/01/04 16:15:29;;;;;;;61.68;29.75;;;;;;;1.52;92.02;98736.77;4339037;80;21196;-90
2021/01/04 16:21:33;;;;;;;61.28;31.30;;;;;;;1.48;92.04;98737.19;4342103;80;21185;-89
2021/01/04 16:27:35;;;;;;;60.80;32.95;;;;;;;1.52;92.33;98750.80;4354175;80;21213;-90
2021/01/04 16:33:37;;;;;;;68.00;35.05;;;;;;;1.57;92.53;98757.38;4361732;80;21174;-89
2021/01/04 16:39:41;;;;;;;69.40;37.85;;;;;;;1.57;92.53;98751.98;4359014;81;21175;-90
2021/01/04 16:45:43;;;;;;;83.15;38.90;;;;;;;1.66;92.83;98754.67;4346293;80;21175;-90
2021/01/04 16:51:45;;;;;;;72.17;36.13;;;;;;;1.71;92.73;98746.41;4353464;80;21174;-91
2021/01/04 16:57:47;;;;;;;87.88;41.92;;;;;;;1.86;92.99;98754.77;4348394;80;21614;-90
2021/01/04 17:03:48;;;;;;;84.15;38.58;;;;;;;1.95;92.71;98752.02;4352699;81;21159;-90
2021/01/04 17:09:51;;;;;;;79.12;39.80;;;;;;;1.91;92.85;98756.49;4354443;80;21190;-90
2021/01/04 17:15:53;;;;;;;80.75;38.92;;;;;;;1.93;92.96;98752.34;4353836;81;21166;-90
2021/01/04 17:21:57;;;;;;;79.55;37.55;;;;;;;1.96;92.90;98746.29;4344616;80;21155;-91
2021/01/04 17:28:13;;;;;;;79.05;35.65;;;;;;;2.02;93.02;98750.97;4326307;80;21174;-90
2021/01/04 17:34:34;;;;;;;78.00;36.08;;;;;;;2.09;92.94;98747.19;4576336;75;22961;-89
2021/01/04 17:40:35;;;;;;;76.47;33.70;;;;;;;2.01;92.96;98738.56;4483411;78;21199;-89
2021/01/04 17:46:41;;;;;;;79.87;36.23;;;;;;;2.10;93.09;98748.79;4485553;78;21179;-91
2021/01/04 17:52:43;;;;;;;84.42;34.13;;;;;;;2.06;93.08;98756.73;4493689;78;21140;-90
2021/01/04 17:58:45;;;;;;;80.42;36.68;;;;;;;2.09;93.27;98747.98;4487446;78;21145;-90
2021/01/04 18:04:46;;;;;;;82.42;35.35;;;;;;;2.14;93.35;98761.31;4491041;78;21143;-90
2021/01/04 18:10:48;;;;;;;83.42;34.13;;;;;;;2.17;93.09;98757.95;4491510;78;21204;-90
2021/01/04 18:16:50;;;;;;;82.90;36.33;;;;;;;2.26;93.23;98757.89;4488516;78;21642;-89
2021/01/04 18:22:52;;;;;;;99.25;40.73;;;;;;;2.30;93.11;98765.02;4485903;78;21149;-88
2021/01/04 18:29:00;;;;;;;89.52;39.25;;;;;;;2.28;93.29;98763.22;4494693;77;21160;-90
2021/01/04 18:35:03;;;;;;;104.85;43.78;;;;;;;2.27;93.04;98763.55;4480953;78;21315;-90
2021/01/04 18:41:05;;;;;;;85.70;36.28;;;;;;;2.22;93.15;98754.28;4483688;78;21149;-89
2021/01/04 18:47:08;;;;;;;91.72;40.35;;;;;;;2.26;93.25;98758.70;4500607;78;21136;-88
2021/01/04 18:53:11;;;;;;;120.08;49.25;;;;;;;2.29;93.09;98766.14;4492961;78;21319;-89
2021/01/04 18:59:25;;;;;;;136.20;56.63;;;;;;;2.32;93.37;98761.44;4484016;78;21481;-88
2021/01/04 19:05:27;;;;;;;129.78;49.38;;;;;;;2.35;93.35;98751.33;4478749;78;21291;-89
2021/01/04 19:11:36;;;;;;;123.15;48.28;;;;;;;2.24;93.17;98758.22;4486937;78;21152;-90
2021/01/04 19:17:38;;;;;;;124.90;50.10;;;;;;;2.35;93.46;98753.27;4485361;78;21591;-91
2021/01/04 19:23:40;;;;;;;127.17;51.65;;;;;;;2.36;93.37;98750.23;4484125;77;21184;-90
2021/01/04 19:29:43;;;;;;;128.87;51.73;;;;;;;2.39;93.55;98748.78;4489738;78;21191;-90
2021/01/04 19:35:45;;;;;;;121.50;52.27;;;;;;;2.43;93.75;98736.98;4485565;78;21184;-90
2021/01/04 19:41:48;;;;;;;138.22;53.68;;;;;;;2.53;93.90;98733.91;4483194;78;22096;-91
2021/01/04 19:47:49;;;;;;;118.42;51.18;;;;;;;2.60;93.73;98734.74;4488262;78;21205;-90
2021/01/04 19:53:59;;;;;;;121.67;49.95;;;;;;;2.52;93.55;98732.89;4362840;77;9999919;-90
2021/01/04 20:00:00;;;;;;;120.90;50.20;;;;;;;2.63;94.10;98719.99;4485675;78;21156;-90
2021/01/04 20:06:03;;;;;;;127.32;52.85;;;;;;;2.70;93.56;98715.41;4489990;78;21204;-90
2021/01/04 20:12:07;;;;;;;120.80;50.23;;;;;;;2.53;93.70;98715.00;4487098;78;21131;-89
2021/01/04 20:18:08;;;;;;;130.78;56.18;;;;;;;2.58;94.03;98720.21;4461768;78;21192;-89
2021/01/04 20:24:15;;;;;;;119.15;51.90;;;;;;;2.70;94.36;98701.91;4482482;78;21658;-90
2021/01/04 20:30:19;;;;;;;120.10;52.50;;;;;;;2.82;94.46;98710.86;4487327;78;21204;-89
2021/01/04 20:36:20;;;;;;;123.07;47.80;;;;;;;2.90;94.72;98722.17;4489579;78;21185;-88
2021/01/04 20:42:22;;;;;;;110.75;47.73;;;;;;;2.82;93.90;98712.22;4486306;78;21179;-88
2021/01/04 20:48:24;;;;;;;108.92;49.03;;;;;;;2.72;94.15;98718.03;4495231;78;21133;-88
2021/01/04 20:54:26;;;;;;;109.92;48.42;;;;;;;2.79;94.33;98707.47;4489603;78;21684;-87
2021/01/04 21:00:27;;;;;;;132.07;53.50;;;;;;;2.83;94.18;98705.70;4490362;78;21582;-88
2021/01/04 21:06:42;;;;;;;115.47;47.05;;;;;;;2.78;94.17;98705.09;4494120;78;21179;-89
2021/01/04 21:12:44;;;;;;;107.22;47.30;;;;;;;2.74;94.31;98695.50;4495778;78;21312;-90
2021/01/04 21:18:46;;;;;;;106.95;46.18;;;;;;;2.77;94.46;98690.78;4486626;78;21171;-90
2021/01/04 21:24:49;;;;;;;114.00;48.92;;;;;;;2.75;94.33;98681.44;4486920;78;21140;-87
2021/01/04 21:30:51;;;;;;;103.17;45.17;;;;;;;2.73;94.51;98674.20;4485492;78;21152;-88
2021/01/04 21:36:53;;;;;;;99.07;43.95;;;;;;;2.72;94.56;98657.77;4497809;78;21276;-89
2021/01/04 21:42:55;;;;;;;106.30;44.93;;;;;;;2.75;94.67;98655.76;4365501;78;9999971;-90
2021/01/04 21:48:57;;;;;;;121.65;44.98;;;;;;;2.80;94.72;98650.92;4492134;78;21177;-89
2021/01/04 21:54:58;;;;;;;125.82;49.23;;;;;;;2.82;94.73;98651.39;4501161;78;21598;-89
2021/01/04 22:01:00;;;;;;;134.35;51.90;;;;;;;2.77;94.56;98646.77;4495866;78;21110;-89
2021/01/04 22:07:01;;;;;;;101.78;41.85;;;;;;;2.76;94.74;98642.46;4496507;78;21172;-90
2021/01/04 22:13:03;;;;;;;101.15;41.28;;;;;;;2.78;94.66;98641.02;4499023;78;21124;-89
2021/01/04 22:19:04;;;;;;;104.20;44.25;;;;;;;2.76;94.81;98638.41;4493457;78;21192;-89
2021/01/04 22:25:08;;;;;;;103.40;41.92;;;;;;;2.72;94.68;98636.95;4492955;78;21203;-89
2021/01/04 22:31:16;;;;;;;106.67;41.45;;;;;;;2.67;94.66;98634.45;4496427;78;22117;-89
2021/01/04 22:37:17;;;;;;;93.37;40.17;;;;;;;2.67;94.86;98630.95;4496213;78;21133;-89
2021/01/04 22:43:21;;;;;;;95.12;38.23;;;;;;;2.65;94.94;98628.58;4492335;78;21157;-90
2021/01/04 22:49:23;;;;;;;93.95;38.95;;;;;;;2.64;94.96;98635.11;4492856;78;21173;-89
2021/01/04 22:55:24;;;;;;;88.67;37.20;;;;;;;2.67;95.01;98629.59;4493560;78;21120;-90
2021/01/04 23:01:25;;;;;;;96.95;37.15;;;;;;;2.72;95.14;98624.79;4486543;78;21145;-90
2021/01/04 23:07:27;;;;;;;79.27;34.23;;;;;;;2.75;95.07;98617.91;4493689;78;21132;-89
2021/01/04 23:13:28;;;;;;;85.92;33.23;;;;;;;2.68;95.00;98619.80;4492489;78;21225;-91
2021/01/04 23:19:31;;;;;;;82.12;35.28;;;;;;;2.68;95.13;98621.16;4495850;78;21173;-90
2021/01/04 23:25:33;;;;;;;83.72;33.58;;;;;;;2.68;95.10;98613.05;4486400;78;21554;-90
2021/01/04 23:31:35;;;;;;;85.75;34.58;;;;;;;2.67;95.21;98605.27;4457665;78;21204;-89
2021/01/04 23:37:36;;;;;;;97.90;39.13;;;;;;;2.68;95.28;98603.59;4489757;78;21165;-89
2021/01/04 23:43:38;;;;;;;98.92;38.70;;;;;;;2.68;95.18;98597.38;4485384;78;21585;-90
2021/01/04 23:49:39;;;;;;;89.30;35.85;;;;;;;2.70;95.29;98582.98;4487604;78;21132;-90
2021/01/04 23:55:41;;;;;;;83.33;35.48;;;;;;;2.70;95.25;98577.58;4491545;78;21832;-90
